Bedford Park, Illinois
Current Conditions -  °F | °C
As of 6:53 PM on Tuesday 21 Oct 2014 (Local Time) from KMDW Reporting Station
Overcast Overcast  
Wind Chill: 51°   Ceiling: 3000
Heat Index: 51°   Visibility: 10mi
Dew Point: 38°   Wind: 12mph
Humidity: 61%   Direction: 30°NNE
Pressure: 30.22"   Gusts: NA
Location:  41.76°N, 87.8°W
Report Text: KMDW 212353Z 03010KT 10SM OVC030 11/03 A3022 RMK AO2 SLP235 T01060033 10122 20106 53011
Loading
Personal Weather Stations






























Interactive Weather Map
Tropical Storm Tracking
New forecast layout! Learn more

10-Day Weather Forecast

Advertisements
Track Severe Weather on mobile